createdAt,value
2018-11-20T00:02:19.660Z,1.87
2018-11-20T00:05:16.919Z,1.89
2018-11-20T00:08:14.106Z,1.92
2018-11-20T00:10:53.649Z,1.90
2018-11-20T00:13:40.122Z,1.91
2018-11-20T00:16:28.507Z,1.91
2018-11-20T00:19:15.652Z,1.90
2018-11-20T00:22:13.021Z,1.89
2018-11-20T00:24:53.213Z,1.96
2018-11-20T00:27:32.009Z,2.00
2018-11-20T00:30:26.448Z,1.97
2018-11-20T00:33:16.571Z,1.97
2018-11-20T00:36:08.051Z,2.03
2018-11-20T00:38:56.448Z,2.05
2018-11-20T00:41:34.422Z,2.03
2018-11-20T00:44:22.759Z,2.02
2018-11-20T00:47:14.269Z,1.98
2018-11-20T00:50:02.716Z,1.97
2018-11-20T00:52:51.181Z,1.92
2018-11-20T00:56:14.363Z,1.93
2018-11-20T00:58:55.073Z,1.94
2018-11-20T01:01:43.420Z,1.85
2018-11-20T01:04:30.345Z,1.81
2018-11-20T01:07:17.227Z,1.86
2018-11-20T01:10:08.180Z,1.93
2018-11-20T01:12:55.579Z,1.96
2018-11-20T01:15:42.422Z,1.96
2018-11-20T01:18:29.848Z,1.93
2018-11-20T01:21:16.980Z,1.92
2018-11-20T01:24:05.377Z,1.91
2018-11-20T01:26:46.062Z,1.89
2018-11-20T01:29:36.259Z,1.92
2018-11-20T01:32:23.456Z,1.92
2018-11-20T01:35:14.126Z,1.89
2018-11-20T01:37:50.414Z,1.87
2018-11-20T01:40:27.908Z,1.87
2018-11-20T01:43:16.635Z,1.93
2018-11-20T01:46:08.684Z,1.98
2018-11-20T01:49:06.451Z,1.95
2018-11-20T01:52:03.865Z,1.96
2018-11-20T01:55:01.524Z,2.00
2018-11-20T01:57:56.027Z,1.95
2018-11-20T02:00:47.422Z,1.94
2018-11-20T02:03:34.664Z,1.95
2018-11-20T02:06:28.950Z,1.92
2018-11-20T02:09:15.002Z,1.90
2018-11-20T02:12:01.852Z,1.88
2018-11-20T02:14:58.835Z,1.91
2018-11-20T02:17:59.397Z,1.93
2018-11-20T02:20:45.953Z,1.92
2018-11-20T02:23:33.258Z,1.94
2018-11-20T02:26:20.310Z,1.92
2018-11-20T02:29:07.375Z,1.90
2018-11-20T02:31:58.469Z,1.89
2018-11-20T02:34:46.911Z,1.93
2018-11-20T02:37:33.966Z,1.95
2018-11-20T02:40:22.243Z,1.93
2018-11-20T02:43:10.218Z,1.91
2018-11-20T02:45:56.805Z,1.90
2018-11-20T02:48:47.741Z,1.93
2018-11-20T02:51:45.183Z,1.94
2018-11-20T02:54:32.399Z,1.92
2018-11-20T02:57:19.651Z,1.90
2018-11-20T03:00:20.137Z,1.91
2018-11-20T03:03:20.672Z,1.97
2018-11-20T03:06:24.289Z,2.01
2018-11-20T03:09:24.795Z,2.02
2018-11-20T03:12:12.108Z,2.00
2018-11-20T03:15:00.385Z,1.97
2018-11-20T03:17:40.228Z,1.97
2018-11-20T03:20:39.661Z,2.02
2018-11-20T03:23:26.695Z,2.01
2018-11-20T03:26:18.804Z,1.98
2018-11-20T03:29:18.264Z,1.93
2018-11-20T03:32:15.771Z,2.01
2018-11-20T03:35:12.742Z,1.98
2018-11-20T03:38:07.106Z,1.98
2018-11-20T03:40:50.587Z,1.95
2018-11-20T03:43:39.062Z,1.94
2018-11-20T03:46:26.114Z,1.91
2018-11-20T03:49:26.510Z,1.92
2018-11-20T03:52:03.798Z,1.95
2018-11-20T03:54:51.029Z,1.94
2018-11-20T03:57:31.050Z,1.97
2018-11-20T04:00:19.048Z,1.94
2018-11-20T04:03:06.098Z,1.93
2018-11-20T04:05:53.678Z,1.88
2018-11-20T04:08:40.946Z,1.87
2018-11-20T04:11:22.257Z,1.91
2018-11-20T04:14:10.237Z,1.88
2018-11-20T04:17:04.672Z,1.89
2018-11-20T04:19:53.058Z,1.92
2018-11-20T04:22:53.297Z,1.89
2018-11-20T04:25:56.905Z,1.91
2018-11-20T04:28:51.585Z,1.96
2018-11-20T04:32:11.191Z,1.94
2018-11-20T04:35:18.924Z,1.91
2018-11-20T04:38:10.170Z,1.90
2018-11-20T04:40:51.908Z,1.86
2018-11-20T04:43:46.527Z,1.93
2018-11-20T04:46:30.228Z,1.95
2018-11-20T04:49:17.113Z,1.97
2018-11-20T04:51:59.238Z,1.96
2018-11-20T04:54:43.548Z,1.99
2018-11-20T04:57:43.991Z,2.04
2018-11-20T05:00:39.567Z,2.00
2018-11-20T05:03:30.851Z,1.96
2018-11-20T05:06:25.322Z,1.97
2018-11-20T05:09:12.536Z,2.03
2018-11-20T05:11:56.706Z,2.02
2018-11-20T05:14:43.702Z,2.02
2018-11-20T05:17:23.244Z,2.04
2018-11-20T05:20:23.479Z,2.03
2018-11-20T05:23:24.094Z,2.05
2018-11-20T05:26:15.162Z,2.08
2018-11-20T05:29:06.582Z,2.08
2018-11-20T05:31:53.740Z,2.07
2018-11-20T05:34:41.107Z,2.06
2018-11-20T05:37:35.941Z,2.03
2018-11-20T05:40:31.495Z,1.97
2018-11-20T05:43:24.610Z,1.95
2018-11-20T05:46:12.031Z,1.96
2018-11-20T05:49:06.449Z,1.95
2018-11-20T05:52:05.730Z,1.94
2018-11-20T05:54:47.485Z,1.95
2018-11-20T05:57:34.477Z,1.94
2018-11-20T06:00:35.078Z,1.96
2018-11-20T06:03:29.410Z,1.96
2018-11-20T06:06:23.792Z,1.95
2018-11-20T06:09:06.316Z,1.92
2018-11-20T06:11:53.340Z,1.95
2018-11-20T06:14:37.686Z,1.94
2018-11-20T06:17:24.755Z,1.87
2018-11-20T06:20:28.003Z,1.85
2018-11-20T06:23:28.699Z,1.86
2018-11-20T06:26:12.447Z,1.83
2018-11-20T06:28:59.366Z,1.82
2018-11-20T06:31:43.894Z,1.86
2018-11-20T06:34:24.113Z,1.85
2018-11-20T06:37:15.492Z,1.86
2018-11-20T06:40:02.666Z,1.85
2018-11-20T06:42:49.853Z,1.85
2018-11-20T06:45:38.514Z,1.88
2018-11-20T06:48:42.868Z,1.87
2018-11-20T06:51:34.087Z,1.86
2018-11-20T06:54:25.418Z,1.81
2018-11-20T06:57:26.217Z,1.82
2018-11-20T07:00:20.100Z,1.90
2018-11-20T07:03:07.309Z,1.92
2018-11-20T07:05:48.104Z,1.97
2018-11-20T07:08:39.388Z,1.98
2018-11-20T07:11:27.877Z,1.97
2018-11-20T07:14:19.454Z,1.94
2018-11-20T07:16:55.872Z,1.93
2018-11-20T07:19:45.544Z,1.94
2018-11-20T07:22:33.891Z,1.98
2018-11-20T07:25:24.878Z,2.02
2018-11-20T07:28:19.182Z,2.04
2018-11-20T07:31:06.459Z,2.03
2018-11-20T07:33:54.869Z,2.00
2018-11-20T07:36:41.910Z,2.03
2018-11-20T07:39:28.503Z,2.03
2018-11-20T07:42:06.066Z,2.03
2018-11-20T07:45:00.231Z,2.04
2018-11-20T07:47:48.614Z,2.06
2018-11-20T07:50:30.925Z,2.03
2018-11-20T07:53:18.109Z,1.97
2018-11-20T07:56:05.537Z,1.93
2018-11-20T07:58:52.221Z,1.92
2018-11-20T08:01:43.207Z,1.91
2018-11-20T08:04:30.421Z,1.92
2018-11-20T08:07:17.379Z,1.95
2018-11-20T08:10:05.843Z,2.03
2018-11-20T08:12:53.006Z,2.09
2018-11-20T08:15:38.412Z,2.14
2018-11-20T08:18:19.449Z,2.19
2018-11-20T08:21:03.016Z,2.22
2018-11-20T08:23:49.987Z,2.21
2018-11-20T08:26:31.744Z,2.19
2018-11-20T08:29:35.060Z,2.21
2018-11-20T08:32:20.938Z,2.19
2018-11-20T08:35:04.688Z,2.20
2018-11-20T08:37:59.554Z,2.21
2018-11-20T08:40:53.684Z,2.21
2018-11-20T08:43:41.861Z,2.20
2018-11-20T08:46:28.982Z,2.19
2018-11-20T08:49:16.232Z,2.20
2018-11-20T08:52:07.206Z,2.19
2018-11-20T08:54:48.565Z,2.21
2018-11-20T08:57:52.096Z,2.24
2018-11-20T09:00:40.497Z,2.22
2018-11-20T09:03:28.942Z,2.21
2018-11-20T09:06:29.531Z,2.21
2018-11-20T09:09:27.095Z,2.31
2018-11-20T09:12:27.731Z,2.33
2018-11-20T09:15:16.165Z,2.34
2018-11-20T09:18:10.508Z,2.44
2018-11-20T09:20:57.510Z,2.42
2018-11-20T09:23:58.212Z,2.45
2018-11-20T09:26:45.434Z,2.48
2018-11-20T09:29:36.734Z,2.48
2018-11-20T09:32:12.278Z,2.53
2018-11-20T09:34:53.552Z,2.62
2018-11-20T09:37:54.011Z,2.65
2018-11-20T09:41:00.915Z,2.69
2018-11-20T09:44:25.752Z,2.71
2018-11-20T09:47:26.029Z,2.74
2018-11-20T09:50:14.643Z,2.84
2018-11-20T09:53:05.728Z,2.91
2018-11-20T09:56:06.527Z,2.93
2018-11-20T09:58:42.813Z,2.86
2018-11-20T10:01:33.735Z,2.86
2018-11-20T10:04:28.194Z,2.87
2018-11-20T10:07:16.745Z,2.93
2018-11-20T10:10:03.849Z,3.06
2018-11-20T10:12:43.125Z,3.05
2018-11-20T10:15:41.760Z,3.05
2018-11-20T10:18:40.268Z,2.96
2018-11-20T10:21:27.645Z,2.93
2018-11-20T10:24:19.098Z,3.00
2018-11-20T10:27:01.187Z,3.10
2018-11-20T10:29:49.085Z,3.12
2018-11-20T10:32:36.931Z,3.10
2018-11-20T10:35:24.492Z,3.04
2018-11-20T10:38:04.593Z,2.97
2018-11-20T10:40:51.748Z,3.06
2018-11-20T10:43:38.868Z,3.08
2018-11-20T10:46:33.267Z,3.13
2018-11-20T10:49:21.628Z,3.20
2018-11-20T10:52:13.858Z,3.25
2018-11-20T10:55:14.067Z,3.31
2018-11-20T10:58:14.654Z,3.34
2018-11-20T11:01:01.895Z,3.38
2018-11-20T11:03:49.300Z,3.38
2018-11-20T11:06:37.632Z,3.38
2018-11-20T11:09:36.489Z,3.39
2018-11-20T11:12:28.714Z,3.41
2018-11-20T11:15:15.936Z,3.48
2018-11-20T11:17:59.803Z,3.55
2018-11-20T11:20:46.940Z,3.51
2018-11-20T11:23:44.323Z,3.54
2018-11-20T11:26:32.741Z,3.53
2018-11-20T11:29:36.298Z,3.67
2018-11-20T11:32:23.864Z,3.78
2018-11-20T11:35:24.098Z,3.73
2018-11-20T11:38:15.479Z,3.54
2018-11-20T11:41:22.272Z,3.43
2018-11-20T11:44:09.234Z,3.34
2018-11-20T11:47:12.965Z,3.28
2018-11-20T11:50:05.675Z,3.23
2018-11-20T11:53:02.673Z,3.20
2018-11-20T11:56:09.219Z,3.15
2018-11-20T11:58:56.584Z,3.07
2018-11-20T12:04:40.150Z,2.93
2018-11-20T12:07:29.675Z,2.96
2018-11-20T12:10:36.514Z,3.01
2018-11-20T12:13:33.899Z,2.95
2018-11-20T12:16:40.658Z,2.97
2018-11-20T12:19:29.094Z,2.99
2018-11-20T12:22:23.481Z,2.91
2018-11-20T12:25:10.682Z,2.91
2018-11-20T12:27:58.798Z,2.98
2018-11-20T12:30:49.136Z,3.10
2018-11-20T12:33:49.435Z,3.18
2018-11-20T12:36:53.671Z,3.20
2018-11-20T12:39:31.161Z,3.18
2018-11-20T12:42:25.654Z,3.18
2018-11-20T12:45:13.565Z,3.24
2018-11-20T12:48:03.632Z,3.12
2018-11-20T12:51:05.481Z,3.01
2018-11-20T12:53:54.297Z,3.00
2018-11-20T12:56:41.293Z,2.96
2018-11-20T12:59:34.159Z,2.88
2018-11-20T13:02:24.585Z,2.91
2018-11-20T13:05:11.708Z,2.95
2018-11-20T13:08:00.658Z,2.94
2018-11-20T13:10:48.624Z,2.99
2018-11-20T13:13:50.499Z,3.04
2018-11-20T13:16:37.784Z,3.01
2018-11-20T13:19:21.170Z,2.99
2018-11-20T13:22:12.383Z,2.98
2018-11-20T13:24:59.859Z,2.92
2018-11-20T13:27:47.989Z,2.89
2018-11-20T13:30:40.668Z,2.89
2018-11-20T13:33:49.446Z,2.87
2018-11-20T13:36:30.956Z,2.91
2018-11-20T13:39:28.261Z,2.90
2018-11-20T13:42:16.712Z,2.79
2018-11-20T13:45:14.977Z,2.77
2018-11-20T13:48:00.710Z,2.78
2018-11-20T13:50:47.757Z,2.77
2018-11-20T13:53:36.155Z,2.81
2018-11-20T13:56:23.691Z,2.80
2018-11-20T13:59:10.437Z,2.79
2018-11-20T14:01:57.125Z,2.76
2018-11-20T14:04:43.989Z,2.77
2018-11-20T14:07:38.012Z,2.74
2018-11-20T14:10:37.756Z,2.76
2018-11-20T14:13:18.547Z,2.72
2018-11-20T14:16:15.855Z,2.70
2018-11-20T14:19:06.836Z,2.71
2018-11-20T14:21:54.384Z,2.70
2018-11-20T14:24:41.807Z,2.68
2018-11-20T14:27:29.315Z,2.66
2018-11-20T14:30:16.440Z,2.60
2018-11-20T14:33:05.572Z,2.58
2018-11-20T14:36:05.977Z,2.57
2018-11-20T14:38:56.492Z,2.61
2018-11-20T14:41:40.975Z,2.57
2018-11-20T14:44:35.129Z,2.60
2018-11-20T14:47:22.456Z,2.60
2018-11-20T14:50:10.843Z,2.53
2018-11-20T14:53:05.459Z,2.49
2018-11-20T14:56:02.710Z,2.51
2018-11-20T14:58:49.623Z,2.54
2018-11-20T15:01:36.583Z,2.50
2018-11-20T15:04:28.008Z,2.48
2018-11-20T15:07:14.837Z,2.46
2018-11-20T15:10:01.878Z,2.47
2018-11-20T15:12:56.080Z,2.49
2018-11-20T15:15:48.088Z,2.49
2018-11-20T15:18:48.389Z,2.46
2018-11-20T15:21:42.621Z,2.43
2018-11-20T15:24:32.068Z,2.42
2018-11-20T15:27:29.285Z,2.35
2018-11-20T15:30:16.265Z,2.30
2018-11-20T15:33:12.996Z,2.28
2018-11-20T15:36:10.097Z,2.25
2018-11-20T15:38:57.132Z,2.24
2018-11-20T15:41:37.137Z,2.30
2018-11-20T15:44:25.613Z,2.21
2018-11-20T15:47:12.469Z,2.17
2018-11-20T15:49:59.362Z,2.16
2018-11-20T15:52:47.774Z,2.16
2018-11-20T15:55:34.832Z,2.13
2018-11-20T15:58:22.247Z,2.15
2018-11-20T16:01:23.245Z,2.19
2018-11-20T16:04:06.693Z,2.16
2018-11-20T16:07:01.648Z,2.17
2018-11-20T16:09:52.682Z,2.16
2018-11-20T16:12:59.612Z,2.15
2018-11-20T16:15:46.783Z,2.05
2018-11-20T16:18:37.903Z,1.96
2018-11-20T16:21:29.347Z,1.97
2018-11-20T16:24:16.258Z,2.00
2018-11-20T16:27:03.050Z,2.02
2018-11-20T16:30:09.953Z,1.99
2018-11-20T16:32:58.295Z,1.92
2018-11-20T16:35:37.810Z,1.90
2018-11-20T16:38:27.311Z,1.84
2018-11-20T16:41:14.281Z,1.82
2018-11-20T16:43:55.300Z,1.84
2018-11-20T16:46:36.207Z,1.82
2018-11-20T16:49:23.999Z,1.83
2018-11-20T16:52:23.655Z,1.87
2018-11-20T16:55:10.814Z,1.87
2018-11-20T16:58:02.279Z,1.86
2018-11-20T17:00:59.048Z,1.84
2018-11-20T17:03:53.090Z,1.84
2018-11-20T17:06:39.904Z,1.78
2018-11-20T17:09:29.285Z,1.76
2018-11-20T17:12:23.459Z,1.73
2018-11-20T17:15:14.657Z,1.79
2018-11-20T17:18:01.546Z,1.80
2018-11-20T17:20:48.542Z,1.84
2018-11-20T17:23:39.970Z,1.82
2018-11-20T17:26:31.484Z,1.85
2018-11-20T17:29:25.709Z,1.82
2018-11-20T17:32:12.808Z,1.83
2018-11-20T17:35:07.353Z,1.83
2018-11-20T17:37:46.739Z,1.83
2018-11-20T17:40:30.737Z,1.83
2018-11-20T17:43:25.260Z,1.85
2018-11-20T17:46:09.256Z,1.87
2018-11-20T17:48:48.636Z,1.88
2018-11-20T17:51:35.631Z,1.92
2018-11-20T17:54:39.318Z,1.89
2018-11-20T17:57:32.744Z,1.88
2018-11-20T18:00:21.637Z,1.93
2018-11-20T18:03:02.980Z,1.90
2018-11-20T18:05:57.409Z,1.88
2018-11-20T18:08:51.369Z,1.87
2018-11-20T18:11:45.681Z,1.85
2018-11-20T18:14:32.598Z,1.69
2018-11-20T18:17:21.031Z,1.54
2018-11-20T18:20:09.418Z,1.38
2018-11-20T18:23:03.468Z,1.32
2018-11-20T18:26:00.968Z,1.31
2018-11-20T18:28:42.454Z,1.32
2018-11-20T18:31:36.665Z,1.27
2018-11-20T18:34:44.347Z,1.28
2018-11-20T18:37:23.177Z,1.25
2018-11-20T18:40:20.776Z,1.22
2018-11-20T18:43:24.179Z,1.23
2018-11-20T18:46:11.465Z,1.19
2018-11-20T18:48:58.716Z,1.21
2018-11-20T18:51:55.839Z,1.19
2018-11-20T18:54:56.331Z,1.19
2018-11-20T18:57:42.738Z,1.19
2018-11-20T19:00:31.155Z,1.24
2018-11-20T19:03:37.998Z,1.27
2018-11-20T19:06:17.851Z,1.23
2018-11-20T19:09:24.540Z,1.21
2018-11-20T19:12:11.648Z,1.31
2018-11-20T19:14:58.468Z,1.32
2018-11-20T19:17:45.716Z,1.36
2018-11-20T19:20:37.362Z,1.36
2018-11-20T19:23:35.171Z,1.40
2018-11-20T19:26:26.573Z,1.34
2018-11-20T19:29:13.753Z,1.35
2018-11-20T19:32:02.220Z,1.35
2018-11-20T19:34:48.854Z,1.34
2018-11-20T19:37:52.563Z,1.30
2018-11-20T19:40:59.284Z,1.25
2018-11-20T19:43:46.338Z,1.24
2018-11-20T19:46:40.896Z,1.25
2018-11-20T19:49:38.168Z,1.23
2018-11-20T19:52:26.234Z,1.27
2018-11-20T19:55:19.474Z,1.36
2018-11-20T20:00:59.382Z,1.39
2018-11-20T20:03:48.795Z,1.43
2018-11-20T20:06:53.804Z,1.44
2018-11-20T20:09:45.185Z,1.40
2018-11-20T20:12:32.538Z,1.38
2018-11-20T20:15:19.742Z,1.40
2018-11-20T20:18:06.619Z,1.37
2018-11-20T20:21:10.244Z,1.40
2018-11-20T20:23:52.188Z,1.35
2018-11-20T20:26:46.729Z,1.33
2018-11-20T20:29:35.185Z,1.28
2018-11-20T20:32:24.764Z,1.25
2018-11-20T20:35:25.353Z,1.29
2018-11-20T20:38:22.528Z,1.30
2018-11-20T20:41:09.825Z,1.24
2018-11-20T20:44:00.838Z,1.27
2018-11-20T20:47:01.314Z,1.22
2018-11-20T20:49:49.749Z,1.17
2018-11-20T20:52:52.781Z,1.11
2018-11-20T20:55:50.542Z,1.15
2018-11-20T21:01:03.681Z,1.23
2018-11-20T21:03:50.853Z,1.17
2018-11-20T21:06:33.273Z,1.14
2018-11-20T21:09:19.678Z,1.11
2018-11-20T21:12:00.143Z,1.09
2018-11-20T21:14:42.267Z,1.04
2018-11-20T21:17:39.122Z,1.10
2018-11-20T21:20:42.126Z,1.13
2018-11-20T21:23:30.879Z,1.16
2018-11-20T21:26:30.499Z,1.15
2018-11-20T21:29:20.856Z,1.14
2018-11-20T21:32:07.325Z,1.14
2018-11-20T21:35:00.818Z,1.14
2018-11-20T21:37:47.321Z,1.12
2018-11-20T21:40:34.935Z,1.11
2018-11-20T21:43:21.383Z,1.09
2018-11-20T21:46:18.091Z,1.12
2018-11-20T21:49:04.389Z,1.12
2018-11-20T21:51:50.721Z,1.13
2018-11-20T21:54:28.483Z,1.12
2018-11-20T21:57:16.099Z,1.13
2018-11-20T22:00:05.733Z,1.10
2018-11-20T22:03:04.096Z,1.15
2018-11-20T22:05:54.350Z,1.17
2018-11-20T22:08:47.689Z,1.19
2018-11-20T22:11:34.129Z,1.19
2018-11-20T22:14:21.803Z,1.18
2018-11-20T22:17:09.407Z,1.14
2018-11-20T22:19:55.534Z,1.16
2018-11-20T22:23:01.226Z,1.15
2018-11-20T22:25:55.210Z,1.14
2018-11-20T22:28:41.386Z,1.07
2018-11-20T22:31:27.745Z,1.04
2018-11-20T22:34:14.868Z,1.06
2018-11-20T22:37:01.452Z,1.04
2018-11-20T22:39:47.706Z,1.05
2018-11-20T22:42:34.274Z,1.03
2018-11-20T22:45:33.763Z,1.00
2018-11-20T22:48:27.435Z,0.97
2018-11-20T22:51:21.343Z,0.95
2018-11-20T22:54:15.004Z,0.97
2018-11-20T22:57:01.406Z,0.95
2018-11-20T22:59:57.950Z,0.92
2018-11-20T23:02:48.458Z,0.90
2018-11-20T23:05:44.171Z,0.88
2018-11-20T23:08:12.677Z,0.87
2018-11-20T23:10:41.165Z,0.85
2018-11-20T23:13:09.711Z,0.87
2018-11-20T23:15:38.251Z,0.84
2018-11-20T23:18:06.667Z,0.83
2018-11-20T23:20:35.330Z,0.85
2018-11-20T23:23:03.850Z,0.87
2018-11-20T23:25:32.403Z,0.87
2018-11-20T23:28:00.982Z,0.85
2018-11-20T23:30:29.588Z,0.86
2018-11-20T23:32:58.083Z,0.90
2018-11-20T23:35:26.598Z,0.94
2018-11-20T23:37:55.217Z,0.95
2018-11-20T23:40:23.779Z,0.95
2018-11-20T23:42:52.329Z,0.94
2018-11-20T23:45:20.808Z,0.91
2018-11-20T23:47:49.292Z,0.92
2018-11-20T23:50:17.823Z,0.93
2018-11-20T23:52:46.369Z,0.93
2018-11-20T23:55:15.423Z,0.96
2018-11-20T23:57:43.961Z,0.98
